createdAt,value
2023-01-25T00:01:44.084Z,12.07
2023-01-25T00:04:12.903Z,11.40
2023-01-25T00:06:40.154Z,12.25
2023-01-25T00:09:07.764Z,11.10
2023-01-25T00:11:35.420Z,11.18
2023-01-25T00:14:03.199Z,10.90
2023-01-25T00:16:30.566Z,11.55
2023-01-25T00:18:58.440Z,11.32
2023-01-25T00:21:26.727Z,11.98
2023-01-25T00:23:54.675Z,11.45
2023-01-25T00:26:22.420Z,11.95
2023-01-25T00:28:54.281Z,11.50
2023-01-25T00:31:33.889Z,10.82
2023-01-25T00:34:24.299Z,11.25
2023-01-25T00:36:57.096Z,10.10
2023-01-25T00:39:26.862Z,10.25
2023-01-25T00:41:54.737Z,11.05
2023-01-25T00:44:22.529Z,11.43
2023-01-25T00:46:49.895Z,11.30
2023-01-25T00:49:26.268Z,11.07
2023-01-25T00:51:55.649Z,11.93
2023-01-25T00:54:24.322Z,9.93
2023-01-25T00:56:53.965Z,11.23
2023-01-25T00:59:24.772Z,12.07
2023-01-25T01:01:53.747Z,10.25
2023-01-25T01:04:25.177Z,11.68
2023-01-25T01:06:54.264Z,10.25
2023-01-25T01:09:22.945Z,10.65
2023-01-25T01:11:52.802Z,11.15
2023-01-25T01:14:21.739Z,11.48
2023-01-25T01:16:49.240Z,9.75
2023-01-25T01:19:16.895Z,9.50
2023-01-25T01:21:44.332Z,10.05
2023-01-25T01:24:12.061Z,10.73
2023-01-25T01:26:39.398Z,11.13
2023-01-25T01:29:07.364Z,11.27
2023-01-25T01:31:34.906Z,10.68
2023-01-25T01:34:22.486Z,10.52
2023-01-25T01:36:49.858Z,11.23
2023-01-25T01:39:17.875Z,11.65
2023-01-25T01:41:45.343Z,10.80
2023-01-25T01:44:19.713Z,12.18
2023-01-25T01:46:58.903Z,12.18
2023-01-25T01:49:32.896Z,11.90
2023-01-25T01:52:15.834Z,11.27
2023-01-25T01:54:55.293Z,10.82
2023-01-25T01:57:27.104Z,10.00
2023-01-25T02:00:02.992Z,10.57
2023-01-25T02:02:41.645Z,11.93
2023-01-25T02:05:22.877Z,11.68
2023-01-25T02:07:53.840Z,11.75
2023-01-25T02:10:24.690Z,11.43
2023-01-25T02:12:55.707Z,12.75
2023-01-25T02:15:27.562Z,8.88
2023-01-25T02:17:56.025Z,11.20
2023-01-25T02:20:29.812Z,12.95
2023-01-25T02:23:22.598Z,13.32
2023-01-25T02:25:50.654Z,13.07
2023-01-25T02:28:41.205Z,12.73
2023-01-25T02:31:08.979Z,13.18
2023-01-25T02:33:37.222Z,11.75
2023-01-25T02:36:08.116Z,11.95
2023-01-25T02:38:40.055Z,12.15
2023-01-25T02:41:13.900Z,11.68
2023-01-25T02:43:41.969Z,12.05
2023-01-25T02:46:27.896Z,11.15
2023-01-25T02:48:56.292Z,11.98
2023-01-25T02:51:26.378Z,12.43
2023-01-25T02:53:55.964Z,11.93
2023-01-25T02:56:24.415Z,11.10
2023-01-25T02:58:52.273Z,11.48
2023-01-25T03:01:21.072Z,12.43
2023-01-25T03:03:48.917Z,12.20
2023-01-25T03:06:17.074Z,13.02
2023-01-25T03:08:44.479Z,13.82
2023-01-25T03:11:12.143Z,11.93
2023-01-25T03:13:39.561Z,12.05
2023-01-25T03:16:11.710Z,11.63
2023-01-25T03:18:41.821Z,10.80
2023-01-25T03:21:15.647Z,11.43
2023-01-25T03:23:44.959Z,11.38
2023-01-25T03:26:18.371Z,11.20
2023-01-25T03:29:02.773Z,11.43
2023-01-25T03:31:30.492Z,11.88
2023-01-25T03:33:57.838Z,11.73
2023-01-25T03:38:57.371Z,10.25
2023-01-25T03:41:25.014Z,11.68
2023-01-25T03:43:52.707Z,10.63
2023-01-25T03:46:20.333Z,11.52
2023-01-25T03:48:48.265Z,10.88
2023-01-25T03:51:16.731Z,11.93
2023-01-25T03:53:44.128Z,11.65
2023-01-25T03:56:20.093Z,12.05
2023-01-25T03:58:56.726Z,10.43
2023-01-25T04:01:24.543Z,11.35
2023-01-25T04:03:51.931Z,10.02
2023-01-25T04:06:19.631Z,11.85
2023-01-25T04:08:47.023Z,11.35
2023-01-25T04:11:14.682Z,11.25
2023-01-25T04:13:45.285Z,11.90
2023-01-25T04:16:15.707Z,12.82
2023-01-25T04:19:01.925Z,11.57
2023-01-25T04:21:31.270Z,11.63
2023-01-25T04:23:59.000Z,12.10
2023-01-25T04:26:26.712Z,11.90
2023-01-25T04:28:58.607Z,12.38
2023-01-25T04:31:26.313Z,11.88
2023-01-25T04:33:53.749Z,10.77
2023-01-25T04:36:21.392Z,12.77
2023-01-25T04:38:48.796Z,12.63
2023-01-25T04:41:16.332Z,11.90
2023-01-25T04:43:44.845Z,11.48
2023-01-25T04:46:13.522Z,10.95
2023-01-25T04:48:41.170Z,11.30
2023-01-25T04:51:09.599Z,11.93
2023-01-25T04:53:37.089Z,12.13
2023-01-25T04:56:07.235Z,12.57
2023-01-25T04:58:43.398Z,13.00
2023-01-25T05:01:11.821Z,13.20
2023-01-25T05:03:39.190Z,11.23
2023-01-25T05:06:13.503Z,12.20
2023-01-25T05:08:40.997Z,11.90
2023-01-25T05:11:08.628Z,12.48
2023-01-25T05:14:05.112Z,12.07
2023-01-25T05:16:34.258Z,13.48
2023-01-25T05:19:02.513Z,12.13
2023-01-25T05:21:58.093Z,12.52
2023-01-25T05:24:32.562Z,12.73
2023-01-25T05:27:04.049Z,13.07
2023-01-25T05:29:57.964Z,12.95
2023-01-25T05:32:50.318Z,13.07
2023-01-25T05:35:18.554Z,13.15
2023-01-25T05:37:46.882Z,14.35
2023-01-25T05:40:21.905Z,15.15
2023-01-25T05:43:02.695Z,14.35
2023-01-25T05:45:31.267Z,14.10
2023-01-25T05:47:59.367Z,14.35
2023-01-25T05:50:27.077Z,14.80
2023-01-25T05:53:01.048Z,14.25
2023-01-25T05:55:29.548Z,14.15
2023-01-25T05:58:01.228Z,15.55
2023-01-25T06:00:28.863Z,15.45
2023-01-25T06:03:01.040Z,14.38
2023-01-25T06:05:29.823Z,15.32
2023-01-25T06:07:58.690Z,15.20
2023-01-25T06:10:30.499Z,16.40
2023-01-25T06:12:59.236Z,15.40
2023-01-25T06:15:27.202Z,15.93
2023-01-25T06:17:58.941Z,15.63
2023-01-25T06:20:39.361Z,16.25
2023-01-25T06:23:07.027Z,16.30
2023-01-25T06:25:34.277Z,17.85
2023-01-25T06:28:01.897Z,16.60
2023-01-25T06:30:29.280Z,16.17
2023-01-25T06:33:00.578Z,16.85
2023-01-25T06:35:29.073Z,18.42
2023-01-25T06:37:57.549Z,17.13
2023-01-25T06:40:25.828Z,16.77
2023-01-25T06:42:53.693Z,18.33
2023-01-25T06:45:21.045Z,18.58
2023-01-25T06:47:49.277Z,17.45
2023-01-25T06:50:16.658Z,17.98
2023-01-25T06:52:51.998Z,17.60
2023-01-25T06:55:19.747Z,19.33
2023-01-25T06:57:48.074Z,17.55
2023-01-25T07:00:18.809Z,19.50
2023-01-25T07:02:46.637Z,18.40
2023-01-25T07:05:14.086Z,18.95
2023-01-25T07:07:45.268Z,19.33
2023-01-25T07:10:12.716Z,19.67
2023-01-25T07:12:40.425Z,17.83
2023-01-25T07:15:08.667Z,19.17
2023-01-25T07:17:36.575Z,17.35
2023-01-25T07:20:04.094Z,18.80
2023-01-25T07:22:31.650Z,19.13
2023-01-25T07:24:59.112Z,19.23
2023-01-25T07:27:26.670Z,18.75
2023-01-25T07:29:54.188Z,18.58
2023-01-25T07:32:21.766Z,17.52
2023-01-25T07:34:49.021Z,17.50
2023-01-25T07:37:16.718Z,17.02
2023-01-25T07:39:49.605Z,16.20
2023-01-25T07:42:17.271Z,18.20
2023-01-25T07:44:52.131Z,17.52
2023-01-25T07:47:19.762Z,17.65
2023-01-25T07:49:47.022Z,17.70
2023-01-25T07:52:14.710Z,16.27
2023-01-25T07:54:42.061Z,16.48
2023-01-25T07:57:09.684Z,16.58
2023-01-25T07:59:36.934Z,16.85
2023-01-25T08:02:04.469Z,16.02
2023-01-25T08:04:31.764Z,15.00
2023-01-25T08:06:59.477Z,15.65
2023-01-25T08:09:26.865Z,16.50
2023-01-25T08:11:54.808Z,16.67
2023-01-25T08:14:22.191Z,15.68
2023-01-25T08:16:49.728Z,17.15
2023-01-25T08:19:17.069Z,15.38
2023-01-25T08:21:44.682Z,16.85
2023-01-25T08:24:12.070Z,16.73
2023-01-25T08:26:39.683Z,16.55
2023-01-25T08:29:07.145Z,15.52
2023-01-25T08:31:35.800Z,16.00
2023-01-25T08:34:03.678Z,16.50
2023-01-25T08:36:31.280Z,16.40
2023-01-25T08:39:01.003Z,15.95
2023-01-25T08:41:30.571Z,16.13
2023-01-25T08:43:58.639Z,17.60
2023-01-25T08:46:30.346Z,16.92
2023-01-25T08:49:01.207Z,18.08
2023-01-25T08:51:29.731Z,19.52
2023-01-25T08:53:57.303Z,20.48
2023-01-25T08:56:25.158Z,21.45
2023-01-25T08:58:52.493Z,21.40
2023-01-25T09:01:20.452Z,20.42
2023-01-25T09:03:49.738Z,20.67
2023-01-25T09:06:18.457Z,20.92
2023-01-25T09:08:46.119Z,20.00
2023-01-25T09:11:19.583Z,21.95
2023-01-25T09:13:48.523Z,21.70
2023-01-25T09:16:20.736Z,20.95
2023-01-25T09:21:19.471Z,21.45
2023-01-25T09:24:05.433Z,22.63
2023-01-25T09:26:36.440Z,22.75
2023-01-25T09:29:04.093Z,23.23
2023-01-25T09:31:31.840Z,23.15
2023-01-25T09:34:04.886Z,25.58
2023-01-25T09:36:32.419Z,23.95
2023-01-25T09:39:00.008Z,24.77
2023-01-25T09:41:33.637Z,24.52
2023-01-25T09:44:26.659Z,24.40
2023-01-25T09:46:58.584Z,25.95
2023-01-25T09:49:47.205Z,27.15
2023-01-25T09:52:57.022Z,25.35
2023-01-25T09:55:27.877Z,25.50
2023-01-25T09:58:00.358Z,26.08
2023-01-25T10:00:36.222Z,23.65
2023-01-25T10:03:25.077Z,24.85
2023-01-25T10:05:58.005Z,26.35
2023-01-25T10:08:32.931Z,24.08
2023-01-25T10:11:11.914Z,24.00
2023-01-25T10:13:39.679Z,25.98
2023-01-25T10:16:24.556Z,24.15
2023-01-25T10:19:20.028Z,24.52
2023-01-25T10:21:56.443Z,25.92
2023-01-25T10:24:45.583Z,25.02
2023-01-25T10:27:31.728Z,25.73
2023-01-25T10:30:02.666Z,25.60
2023-01-25T10:32:35.832Z,20.07
2023-01-25T10:35:34.334Z,26.63
2023-01-25T10:38:10.615Z,24.42
2023-01-25T10:40:52.700Z,24.75
2023-01-25T10:43:23.397Z,24.23
2023-01-25T10:45:51.704Z,19.47
2023-01-25T10:48:27.922Z,23.52
2023-01-25T10:50:57.675Z,23.45
2023-01-25T10:53:28.018Z,23.85
2023-01-25T10:56:12.250Z,23.25
2023-01-25T10:58:48.720Z,23.90
2023-01-25T11:01:31.596Z,22.10
2023-01-25T11:04:00.237Z,22.48
2023-01-25T11:06:36.995Z,23.25
2023-01-25T11:09:22.524Z,23.17
2023-01-25T11:12:00.838Z,23.17
2023-01-25T11:14:31.219Z,23.42
2023-01-25T11:17:01.187Z,24.10
2023-01-25T11:19:37.480Z,23.25
2023-01-25T11:22:21.731Z,22.63
2023-01-25T11:24:49.100Z,24.30
2023-01-25T11:27:25.976Z,23.10
2023-01-25T11:30:05.395Z,21.88
2023-01-25T11:32:33.493Z,22.88
2023-01-25T11:35:01.143Z,21.58
2023-01-25T11:37:54.477Z,21.73
2023-01-25T11:40:34.022Z,22.55
2023-01-25T11:43:39.200Z,23.17
2023-01-25T11:46:40.667Z,22.13
2023-01-25T11:49:30.963Z,22.48
2023-01-25T11:52:08.792Z,21.15
2023-01-25T11:55:17.348Z,22.08
2023-01-25T11:58:19.817Z,20.95
2023-01-25T12:00:50.447Z,21.85
2023-01-25T12:03:51.983Z,21.02
2023-01-25T12:06:37.899Z,22.60
2023-01-25T12:09:26.518Z,23.50
2023-01-25T12:12:00.118Z,22.83
2023-01-25T12:14:52.118Z,22.67
2023-01-25T12:17:28.466Z,22.35
2023-01-25T12:20:01.779Z,22.15
2023-01-25T12:22:51.213Z,21.30
2023-01-25T12:25:37.154Z,22.08
2023-01-25T12:28:12.028Z,20.83
2023-01-25T12:30:48.578Z,22.58
2023-01-25T12:33:20.969Z,20.48
2023-01-25T12:36:04.506Z,22.13
2023-01-25T12:39:04.610Z,20.27
2023-01-25T12:41:44.028Z,19.83
2023-01-25T12:44:18.747Z,19.98
2023-01-25T12:46:53.859Z,19.50
2023-01-25T12:49:33.474Z,21.00
2023-01-25T12:52:06.194Z,19.67
2023-01-25T12:54:42.864Z,21.17
2023-01-25T12:57:30.290Z,20.98
2023-01-25T13:00:14.650Z,18.92
2023-01-25T13:03:06.970Z,19.50
2023-01-25T13:05:39.375Z,20.48
2023-01-25T13:08:33.252Z,20.80
2023-01-25T13:11:19.466Z,21.13
2023-01-25T13:13:46.882Z,19.92
2023-01-25T13:16:25.204Z,19.52
2023-01-25T13:18:52.562Z,21.15
2023-01-25T13:21:56.649Z,21.27
2023-01-25T13:24:31.199Z,20.50
2023-01-25T13:27:00.321Z,20.75
2023-01-25T13:29:36.415Z,22.17
2023-01-25T13:32:24.913Z,21.65
2023-01-25T13:34:55.245Z,21.10
2023-01-25T13:37:31.537Z,22.02
2023-01-25T13:40:25.820Z,21.65
2023-01-25T13:43:02.104Z,20.98
2023-01-25T13:45:32.355Z,22.90
2023-01-25T13:48:13.277Z,21.77
2023-01-25T13:50:49.170Z,23.15
2023-01-25T13:53:16.663Z,22.63
2023-01-25T13:55:50.056Z,24.27
2023-01-25T13:58:25.595Z,23.83
2023-01-25T14:00:59.016Z,25.00
2023-01-25T14:03:43.021Z,26.83
2023-01-25T14:06:19.068Z,24.33
2023-01-25T14:08:47.777Z,25.20
2023-01-25T14:11:24.091Z,24.05
2023-01-25T14:14:26.842Z,23.77
2023-01-25T14:17:04.674Z,23.20
2023-01-25T14:19:32.307Z,24.83
2023-01-25T14:22:28.429Z,23.30
2023-01-25T14:25:14.218Z,25.48
2023-01-25T14:27:53.782Z,25.35
2023-01-25T14:30:23.264Z,23.98
2023-01-25T14:32:52.482Z,25.83
2023-01-25T14:35:42.359Z,25.75
2023-01-25T14:38:30.368Z,24.15
2023-01-25T14:41:22.267Z,26.40
2023-01-25T14:43:53.241Z,25.17
2023-01-25T14:46:28.551Z,24.73
2023-01-25T14:49:28.176Z,24.30
2023-01-25T14:52:16.580Z,24.02
2023-01-25T14:54:53.188Z,24.75
2023-01-25T14:57:35.813Z,21.95
2023-01-25T15:00:17.041Z,22.95
2023-01-25T15:02:48.045Z,23.73
2023-01-25T15:05:27.564Z,23.75
2023-01-25T15:07:58.884Z,23.83
2023-01-25T15:10:31.558Z,24.00
2023-01-25T15:13:13.273Z,23.25
2023-01-25T15:15:58.620Z,23.35
2023-01-25T15:18:52.773Z,22.15
2023-01-25T15:21:25.661Z,22.65
2023-01-25T15:23:55.238Z,23.10
2023-01-25T15:26:28.453Z,22.55
2023-01-25T15:28:58.870Z,23.27
2023-01-25T15:31:32.800Z,24.33
2023-01-25T15:34:01.738Z,22.85
2023-01-25T15:36:31.067Z,23.67
2023-01-25T15:38:58.784Z,24.15
2023-01-25T15:41:26.187Z,24.23
2023-01-25T15:43:53.912Z,23.73
2023-01-25T15:46:25.138Z,22.15
2023-01-25T15:48:53.567Z,23.45
2023-01-25T15:51:21.305Z,21.67
2023-01-25T15:53:48.924Z,22.60
2023-01-25T15:56:19.343Z,22.10
2023-01-25T15:58:59.747Z,22.13
2023-01-25T16:01:29.175Z,23.17
2023-01-25T16:03:59.008Z,21.45
2023-01-25T16:06:41.516Z,23.67
2023-01-25T16:09:15.642Z,23.08
2023-01-25T16:11:43.648Z,24.33
2023-01-25T16:14:11.598Z,22.98
2023-01-25T16:16:45.371Z,23.60
2023-01-25T16:19:15.478Z,23.15
2023-01-25T16:21:43.431Z,22.88
2023-01-25T16:24:12.162Z,24.95
2023-01-25T16:26:44.631Z,25.63
2023-01-25T16:29:12.517Z,25.52
2023-01-25T16:31:39.900Z,23.45
2023-01-25T16:34:07.480Z,23.75
2023-01-25T16:36:35.317Z,24.10
2023-01-25T16:39:28.935Z,23.88
2023-01-25T16:41:57.585Z,24.95
2023-01-25T16:44:25.356Z,25.63
2023-01-25T16:46:52.655Z,25.35
2023-01-25T16:49:22.553Z,23.67
2023-01-25T16:51:50.682Z,24.23
2023-01-25T16:54:20.037Z,25.63
2023-01-25T16:56:48.896Z,25.42
2023-01-25T16:59:18.240Z,24.23
2023-01-25T17:01:46.414Z,24.90
2023-01-25T17:04:14.766Z,25.40
2023-01-25T17:06:44.800Z,24.90
2023-01-25T17:09:25.376Z,26.23
2023-01-25T17:11:54.271Z,23.13
2023-01-25T17:14:23.077Z,25.05
2023-01-25T17:16:55.102Z,25.85
2023-01-25T17:21:50.111Z,25.67
2023-01-25T17:24:21.236Z,25.70
2023-01-25T17:26:48.635Z,25.55
2023-01-25T17:29:16.300Z,25.30
2023-01-25T17:31:44.586Z,26.35
2023-01-25T17:34:16.096Z,24.48
2023-01-25T17:36:44.056Z,26.35
2023-01-25T17:39:16.847Z,26.10
2023-01-25T17:41:45.358Z,28.20
2023-01-25T17:44:14.235Z,27.80
2023-01-25T17:46:41.526Z,26.73
2023-01-25T17:49:12.817Z,25.60
2023-01-25T17:51:40.286Z,27.67
2023-01-25T17:54:08.316Z,29.38
2023-01-25T17:56:37.904Z,28.05
2023-01-25T17:59:09.146Z,27.00
2023-01-25T18:01:36.686Z,26.77
2023-01-25T18:04:07.740Z,26.30
2023-01-25T18:06:35.389Z,25.70
2023-01-25T18:09:04.383Z,26.42
2023-01-25T18:11:35.297Z,24.52
2023-01-25T18:14:08.313Z,24.50
2023-01-25T18:16:38.842Z,23.15
2023-01-25T18:19:07.631Z,24.85
2023-01-25T18:21:35.828Z,24.35
2023-01-25T18:24:25.084Z,23.30
2023-01-25T18:26:59.345Z,23.23
2023-01-25T18:30:02.404Z,23.20
2023-01-25T18:32:32.857Z,21.75
2023-01-25T18:35:00.618Z,21.52
2023-01-25T18:37:33.491Z,23.27
2023-01-25T18:40:01.119Z,23.58
2023-01-25T18:42:28.430Z,22.00
2023-01-25T18:44:56.017Z,23.95
2023-01-25T18:47:23.889Z,23.75
2023-01-25T18:49:53.219Z,23.23
2023-01-25T18:52:22.529Z,22.98
2023-01-25T18:54:50.421Z,25.02
2023-01-25T18:57:17.824Z,24.02
2023-01-25T18:59:45.756Z,23.75
2023-01-25T19:02:16.022Z,24.58
2023-01-25T19:04:44.286Z,23.88
2023-01-25T19:07:12.325Z,24.23
2023-01-25T19:09:42.319Z,24.42
2023-01-25T19:12:10.168Z,25.00
2023-01-25T19:14:37.874Z,22.77
2023-01-25T19:17:05.114Z,24.25
2023-01-25T19:19:34.114Z,24.88
2023-01-25T19:22:01.561Z,25.80
2023-01-25T19:24:29.201Z,24.08
2023-01-25T19:26:56.814Z,25.00
2023-01-25T19:29:24.419Z,22.60
2023-01-25T19:31:51.767Z,23.60
2023-01-25T19:34:19.405Z,24.52
2023-01-25T19:36:50.056Z,22.25
2023-01-25T19:39:18.176Z,23.17
2023-01-25T19:41:46.559Z,23.42
2023-01-25T19:44:15.007Z,23.80
2023-01-25T19:46:42.784Z,24.38
2023-01-25T19:49:11.840Z,23.08
2023-01-25T19:51:42.273Z,22.77
2023-01-25T19:54:17.210Z,23.15
2023-01-25T19:56:49.526Z,24.00
2023-01-25T19:59:19.762Z,24.10
2023-01-25T20:01:47.964Z,23.13
2023-01-25T20:04:19.759Z,23.45
2023-01-25T20:06:48.121Z,23.38
2023-01-25T20:09:17.492Z,23.55
2023-01-25T20:11:46.358Z,23.02
2023-01-25T20:14:14.334Z,24.63
2023-01-25T20:16:41.670Z,24.17
2023-01-25T20:19:12.023Z,24.58
2023-01-25T20:21:39.941Z,22.05
2023-01-25T20:24:09.928Z,22.92
2023-01-25T20:26:39.776Z,23.00
2023-01-25T20:29:08.241Z,22.45
2023-01-25T20:31:38.010Z,22.77
2023-01-25T20:34:16.830Z,22.85
2023-01-25T20:36:45.025Z,22.73
2023-01-25T20:39:14.933Z,21.77
2023-01-25T20:41:42.665Z,21.10
2023-01-25T20:44:12.752Z,21.55
2023-01-25T20:46:42.076Z,21.80
2023-01-25T20:49:14.388Z,21.95
2023-01-25T20:54:11.228Z,18.92
2023-01-25T20:56:39.143Z,22.33
2023-01-25T20:59:06.885Z,19.80
2023-01-25T21:01:37.092Z,19.05
2023-01-25T21:04:07.194Z,19.67
2023-01-25T21:06:35.436Z,20.73
2023-01-25T21:09:04.262Z,19.15
2023-01-25T21:11:32.388Z,22.17
2023-01-25T21:14:00.246Z,21.08
2023-01-25T21:16:27.769Z,22.80
2023-01-25T21:19:00.301Z,20.95
2023-01-25T21:21:32.702Z,22.60
2023-01-25T21:24:02.652Z,21.20
2023-01-25T21:26:32.812Z,20.92
2023-01-25T21:29:01.770Z,20.45
2023-01-25T21:31:32.987Z,20.42
2023-01-25T21:34:01.515Z,21.33
2023-01-25T21:36:29.443Z,21.67
2023-01-25T21:38:58.177Z,20.85
2023-01-25T21:41:29.460Z,20.33
2023-01-25T21:44:17.708Z,19.83
2023-01-25T21:47:06.078Z,19.23
2023-01-25T21:49:52.035Z,19.58
2023-01-25T21:52:19.305Z,19.48
2023-01-25T21:54:46.897Z,18.88
2023-01-25T21:57:14.248Z,20.83
2023-01-25T21:59:41.825Z,20.92
2023-01-25T22:02:14.138Z,19.77
2023-01-25T22:04:41.990Z,19.88
2023-01-25T22:07:09.949Z,19.67
2023-01-25T22:09:37.703Z,20.65
2023-01-25T22:12:05.361Z,22.30
2023-01-25T22:14:32.923Z,22.25
2023-01-25T22:17:00.362Z,22.23
2023-01-25T22:19:27.914Z,21.92
2023-01-25T22:21:55.121Z,21.48
2023-01-25T22:24:22.887Z,21.85
2023-01-25T22:27:28.829Z,21.50
2023-01-25T22:29:56.378Z,20.30
2023-01-25T22:32:23.606Z,21.10
2023-01-25T22:34:51.276Z,21.23
2023-01-25T22:37:18.555Z,21.25
2023-01-25T22:39:46.263Z,20.95
2023-01-25T22:42:13.594Z,20.25
2023-01-25T22:44:41.361Z,20.35
2023-01-25T22:47:08.654Z,20.38
2023-01-25T22:49:36.190Z,20.65
2023-01-25T22:52:03.500Z,20.85
2023-01-25T22:54:31.063Z,21.20
2023-01-25T22:56:59.802Z,21.83
2023-01-25T22:59:27.422Z,22.77
2023-01-25T23:01:54.635Z,21.23
2023-01-25T23:04:22.237Z,19.65
2023-01-25T23:06:49.692Z,23.42
2023-01-25T23:09:17.229Z,21.83
2023-01-25T23:11:44.428Z,20.52
2023-01-25T23:14:31.017Z,21.00
2023-01-25T23:17:18.210Z,22.70
2023-01-25T23:19:45.943Z,21.63
2023-01-25T23:22:13.397Z,21.42
2023-01-25T23:24:41.000Z,21.17
2023-01-25T23:27:08.376Z,21.02
2023-01-25T23:29:37.232Z,19.73
2023-01-25T23:32:04.667Z,20.30
2023-01-25T23:34:34.947Z,20.83
2023-01-25T23:37:02.302Z,20.45
2023-01-25T23:39:29.883Z,21.63
2023-01-25T23:41:57.108Z,20.08
2023-01-25T23:44:24.680Z,18.88
2023-01-25T23:46:51.908Z,19.00
2023-01-25T23:49:19.434Z,19.88
2023-01-25T23:51:46.679Z,19.05
2023-01-25T23:54:14.433Z,17.70
2023-01-25T23:56:41.641Z,18.92
2023-01-25T23:59:09.223Z,19.45
